Redding Municipal Airport Redding US
ICAO: KRDD
IATA: RDD
Category: Medium
Scheduled Services: Yes

Elevation: 505 ft
TransAlt. 18000 ft.

Airport Communications:
ATIS:124.1
OAKLAND CNTR:132.2
CTAF:119.8
GND:121.7
RANCHO RDO:108.4
TWR:119.8
UNICOM:122.95

KRDD Zoom In..

If you have problems with the map follow the link
https://www.worldairports.se/pages/airport.php?
ICAO=KRDD

Runways:

(A) RW 12 length 5067 ft width 150 ft
---- / hdg 122

(B) RW 16 length 7003 ft width 150 ft
---- / hdg 162

(C) RW 30 length 5067 ft width 150 ft
---- / hdg 302

(D) RW 34 length 7003 ft width 150 ft
ILS 108.70 / hdg 342

Location; KRDD
Day. 19 / Time. 15.53 Zulu
* Altimeter: 30.21
* Temperature: 02° c. 35.6°f.
* Wind from: 000° Speed 00 kn.
Dewpoint: 00° c.
Visibility: 10 Statute Miles.
Clouds: Clear (automated report).

KRDD 191553Z 00000KT 10SM CLR 02/00 A3021 RMK AO2 SLP231 T00170000


Wind - Calm.

 
 
jpsmedia worldairports.se 2020   terms of use